Aeroporto :
LOGIN :

Iscrizione | Disclaimer

   EN    FR    IT 

 










Sommario :    VFR   VFR Marginale   IFR   IFR Intensivo   IFR Molto Intensivo
Visibilità : 
Base nubi : 
>= 8 km
>= 3000ft
5 / 8 km
1000 / 3000 ft
1500m / 5 km
500 / 1000 ft
800 / 1500m
200 / 500 ft
< 800m
< 200 ft
Simboli :   Temporali  Nebbia  Neve Forte  Precipitazioni Forti  Vento > 20 kt
SIGMETs :   Varie  Temporali  Ghiacco  Turbolenza  Onda orograficha  Ceneri Vulcaniche






- Altitudine del aeroporto : 779 ft
- Codice IATA : CMF


LFLB - Chambery / Aix-Les-Bains

ULTIMO METAR :
  • 170730Z AUTO VRB02KT 9999 FEW013 OVC032 03/02 Q1006 TEMPO 3000 BR BKN005 BKN020

METARs OBSOLETI :
  • 170700Z AUTO 14004KT 9999 SCT029 OVC035 03/03 Q1006 TEMPO 3000 BR BKN005 BKN020
  • 170630Z AUTO 15002KT 7000 OVC034 03/02 Q1006 TEMPO 3000 BR BKN005 BKN020
  • 170600Z AUTO 17003KT 7000 FEW026 OVC032 03/02 Q1006 TEMPO 3000 BR BKN005 BKN020
  • 170530Z AUTO 14003KT 110V170 6000 BKN023 OVC030 02/02 Q1006 TEMPO 3000 BR BKN005 BKN020
  • 170500Z AUTO 00000KT 6000 OVC023 02/01 Q1007

TAF TAF LFLB
Valido dal 17 a 06 ore il 18 a 06 ore UTC


170500Z 1706/1806 VRB03KT 7000 BKN020
PROB40
TEMPO 1706/1710 3000 BR BKN005 BKN020
TEMPO 1711/1716 4000 RA BKN008 BKN014
TEMPO 1716/1803 2000 -RASN OVC008
PROB30
TEMPO 1718/1803 1500 -SN OVC005



MetMap, La meteo Aeronautica in un colpo d'occhio ! - Copyright ORBIFLY Dicembre 2007 - Disclaimer

ORBIFLY MET'MAP TEAM :

Programmazione e sviluppo : Alexandra Zaïnal
Concezione e sviluppo : Baudouin d'Aumeries
Co-Programmazione e sviluppo : Marc-Olivier Méhu
Supporto tecnico e logistico : Manuel Goepfert
Aiuto per la traduzione : Arnaldo La Scala

Contatto : metmap@orbifly.com




FONTI E CREDITI :

   NOAA